Time;durP1;ratioP1;P1;durP2;ratioP2;P2;SDS_P1;SDS_P2;PMS_P1;PMS_P2;Temp;Humidity;BMP_temperature;BMP_pressure;BME280_temperature;BME280_humidity;BME280_pressure;Samples;Min_cycle;Max_cycle;Signal;HPM_P1;HPM_P2
2021/05/24 00:00:33;;;;;;;31.27;4.03;;;;;;;10.35;100.00;100368.72;5092616;28;20046;-62
2021/05/24 00:02:59;;;;;;;24.27;3.67;;;;;;;10.35;100.00;100371.44;5092723;28;20061;-62
2021/05/24 00:05:28;;;;;;;22.92;3.05;;;;;;;10.34;100.00;100364.31;5092588;28;20070;-63
2021/05/24 00:07:54;;;;;;;24.80;5.32;;;;;;;10.34;100.00;100375.25;5092490;28;20114;-63
2021/05/24 00:10:28;;;;;;;19.58;3.30;;;;;;;10.33;100.00;100361.84;5092445;28;20036;-63
2021/05/24 00:12:56;;;;;;;26.88;3.90;;;;;;;10.32;100.00;100366.50;5092453;28;20031;-62
2021/05/24 00:15:25;;;;;;;35.35;5.05;;;;;;;10.33;100.00;100362.69;5092551;28;20114;-63
2021/05/24 00:17:52;;;;;;;27.00;4.13;;;;;;;10.35;100.00;100352.31;5092242;28;20100;-63
2021/05/24 00:20:23;;;;;;;32.42;5.85;;;;;;;10.38;100.00;100353.72;5092171;28;20050;-62
2021/05/24 00:22:48;;;;;;;28.10;3.90;;;;;;;10.40;100.00;100344.19;5091391;28;20382;-63
2021/05/24 00:25:15;;;;;;;36.47;4.93;;;;;;;10.40;100.00;100346.94;5092126;28;20481;-63
2021/05/24 00:27:41;;;;;;;25.15;4.95;;;;;;;10.40;100.00;100338.75;5092142;28;20059;-62
2021/05/24 00:30:08;;;;;;;23.73;4.53;;;;;;;10.41;100.00;100343.16;5092074;28;20044;-62
2021/05/24 00:32:33;;;;;;;27.10;5.90;;;;;;;10.43;100.00;100324.59;5091970;28;20401;-63
2021/05/24 00:34:59;;;;;;;30.23;5.53;;;;;;;10.46;100.00;100323.28;5091959;28;20047;-62
2021/05/24 00:37:25;;;;;;;29.30;5.03;;;;;;;10.45;100.00;100316.97;5092039;28;20036;-62
2021/05/24 00:39:50;;;;;;;28.30;4.25;;;;;;;10.44;100.00;100315.34;5092186;28;20036;-63
2021/05/24 00:42:16;;;;;;;25.85;5.68;;;;;;;10.44;100.00;100309.88;5091917;28;20130;-62
2021/05/24 00:44:42;;;;;;;30.40;4.80;;;;;;;10.45;100.00;100316.16;5091691;28;20134;-63
2021/05/24 00:47:08;;;;;;;29.92;5.35;;;;;;;10.46;100.00;100324.09;5091847;28;20461;-62
2021/05/24 00:49:34;;;;;;;25.58;4.05;;;;;;;10.46;100.00;100312.34;5091718;28;20432;-63
2021/05/24 00:52:01;;;;;;;34.75;5.05;;;;;;;10.45;100.00;100311.53;5091672;28;20084;-63
2021/05/24 00:54:30;;;;;;;26.67;5.18;;;;;;;10.45;100.00;100311.53;5090163;28;20131;-62
2021/05/24 00:56:59;;;;;;;33.75;5.78;;;;;;;10.45;100.00;100302.50;5091952;27;20040;-62
2021/05/24 00:59:25;;;;;;;38.58;5.95;;;;;;;10.46;100.00;100307.72;5090308;28;20923;-62
2021/05/24 01:01:51;;;;;;;34.17;6.18;;;;;;;10.48;100.00;100294.63;5091109;28;20036;-63
2021/05/24 01:04:18;;;;;;;34.60;6.40;;;;;;;10.48;100.00;100299.25;5091382;28;20040;-63
2021/05/24 01:06:44;;;;;;;34.20;5.85;;;;;;;10.49;100.00;100304.47;5091462;28;20609;-63
2021/05/24 01:09:10;;;;;;;33.53;5.43;;;;;;;10.47;100.00;100292.97;5091384;28;20473;-63
2021/05/24 01:11:36;;;;;;;37.03;6.30;;;;;;;10.50;100.00;100300.66;5091274;28;20042;-63
2021/05/24 01:14:02;;;;;;;34.10;5.93;;;;;;;10.52;100.00;100300.41;5091310;28;20036;-63
2021/05/24 01:16:30;;;;;;;35.88;5.43;;;;;;;10.54;100.00;100282.69;5091327;28;20055;-62
2021/05/24 01:18:55;;;;;;;39.80;6.60;;;;;;;10.55;100.00;100289.78;5091213;28;20107;-64
2021/05/24 01:21:23;;;;;;;35.63;6.20;;;;;;;10.57;100.00;100287.63;5091315;28;20124;-63
2021/05/24 01:23:52;;;;;;;34.63;5.55;;;;;;;10.58;100.00;100278.34;5091209;28;20040;-63
2021/05/24 01:26:20;;;;;;;34.90;5.70;;;;;;;10.61;100.00;100287.13;5091243;28;20097;-63
2021/05/24 01:28:47;;;;;;;44.38;7.20;;;;;;;10.60;100.00;100274.56;5091063;28;20092;-62
2021/05/24 01:31:13;;;;;;;46.03;6.35;;;;;;;10.61;100.00;100277.03;5091214;28;20063;-63
2021/05/24 01:33:39;;;;;;;30.55;4.47;;;;;;;10.58;100.00;100283.81;5091072;28;20036;-63
2021/05/24 01:36:10;;;;;;;45.45;5.93;;;;;;;10.60;100.00;100269.09;5091052;28;20039;-63
2021/05/24 01:38:38;;;;;;;39.22;6.57;;;;;;;10.59;100.00;100273.75;5091140;28;20501;-63
2021/05/24 01:41:06;;;;;;;33.58;5.72;;;;;;;10.60;100.00;100263.63;5089813;28;20089;-63
2021/05/24 01:43:32;;;;;;;38.75;5.13;;;;;;;10.61;100.00;100271.56;5090905;28;20043;-63
2021/05/24 01:45:58;;;;;;;40.65;5.75;;;;;;;10.62;100.00;100273.22;5090787;28;20121;-63
2021/05/24 01:48:24;;;;;;;38.85;6.60;;;;;;;10.64;100.00;100270.22;5091012;28;20032;-63
2021/05/24 01:50:50;;;;;;;46.40;6.00;;;;;;;10.65;100.00;100253.59;5090983;28;20043;-63
2021/05/24 01:53:16;;;;;;;33.58;5.55;;;;;;;10.66;100.00;100243.47;5090805;28;20036;-63
2021/05/24 01:55:42;;;;;;;42.55;5.38;;;;;;;10.69;100.00;100251.16;5090877;28;20085;-63
2021/05/24 01:58:08;;;;;;;37.40;6.70;;;;;;;10.70;100.00;100252.81;5090816;28;20042;-62
2021/05/24 02:00:35;;;;;;;36.95;5.82;;;;;;;10.72;100.00;100262.38;5090833;28;20101;-63
2021/05/24 02:03:01;;;;;;;15.63;2.60;;;;;;;10.53;100.00;100240.06;5090808;28;20436;-63
2021/05/24 02:05:27;;;;;;;13.63;2.35;;;;;;;10.33;100.00;100248.03;5089393;28;20040;-63
2021/05/24 02:07:56;;;;;;;18.33;4.13;;;;;;;10.09;100.00;100243.91;5091046;28;20183;-64
2021/05/24 02:10:25;;;;;;;20.02;2.75;;;;;;;9.99;100.00;100236.41;5090549;28;20040;-64
2021/05/24 02:12:51;;;;;;;31.70;4.00;;;;;;;9.94;100.00;100245.34;5091526;28;20040;-63
2021/05/24 02:15:20;;;;;;;25.20;3.03;;;;;;;9.93;100.00;100238.25;5094797;28;20032;-63
2021/05/24 02:17:46;;;;;;;23.27;2.88;;;;;;;9.93;100.00;100227.31;5094803;28;20056;-62
2021/05/24 02:20:16;;;;;;;23.70;3.05;;;;;;;9.98;100.00;100235.56;5094474;28;20056;-63
2021/05/24 02:22:42;;;;;;;17.67;3.75;;;;;;;10.00;100.00;100240.78;5094554;28;20028;-62
2021/05/24 02:25:09;;;;;;;21.90;3.03;;;;;;;10.01;100.00;100231.50;5094610;28;20462;-63
2021/05/24 02:27:34;;;;;;;11.00;1.95;;;;;;;10.05;100.00;100229.09;5094547;28;20040;-63
2021/05/24 02:30:00;;;;;;;17.60;2.90;;;;;;;10.06;100.00;100230.75;5094386;28;20044;-63
2021/05/24 02:32:26;;;;;;;19.00;2.80;;;;;;;10.08;100.00;100226.69;5094581;28;20102;-64
2021/05/24 02:34:52;;;;;;;16.23;2.80;;;;;;;10.12;100.00;100233.28;5094437;28;20059;-63
2021/05/24 02:37:18;;;;;;;20.17;3.70;;;;;;;10.16;100.00;100225.41;5094355;28;20036;-63
2021/05/24 02:39:44;;;;;;;13.52;2.75;;;;;;;10.18;100.00;100223.25;5094167;28;20040;-63
2021/05/24 02:42:10;;;;;;;22.73;3.85;;;;;;;10.21;100.00;100220.03;5094319;28;20043;-63
2021/05/24 02:44:35;;;;;;;24.05;3.45;;;;;;;10.24;100.00;100228.56;5094142;28;20055;-63
2021/05/24 02:47:01;;;;;;;18.65;4.18;;;;;;;10.27;100.00;100221.78;5094202;28;20032;-64
2021/05/24 02:49:26;;;;;;;21.63;2.88;;;;;;;10.27;100.00;100221.78;5092689;28;20063;-64
2021/05/24 02:51:52;;;;;;;23.73;3.20;;;;;;;10.27;100.00;100210.84;5094172;28;20040;-64
2021/05/24 02:54:17;;;;;;;31.05;4.00;;;;;;;10.26;100.00;100231.03;5093818;28;20477;-63
2021/05/24 02:56:43;;;;;;;23.75;3.30;;;;;;;10.24;100.00;100225.00;5093918;28;20500;-62
2021/05/24 02:59:09;;;;;;;41.60;4.97;;;;;;;10.23;100.00;100217.88;5093963;28;20059;-63
2021/05/24 03:01:35;;;;;;;18.58;2.40;;;;;;;10.17;100.00;100216.97;5094041;28;20547;-63
2021/05/24 03:04:02;;;;;;;18.27;2.85;;;;;;;9.90;100.00;100206.00;5092328;28;20040;-63
2021/05/24 03:06:28;;;;;;;25.48;4.13;;;;;;;9.72;100.00;100241.78;5093825;28;20085;-65
2021/05/24 03:08:55;;;;;;;14.30;1.55;;;;;;;9.52;100.00;100252.34;5093757;28;20032;-63
2021/05/24 03:11:22;;;;;;;13.50;2.30;;;;;;;9.38;100.00;100246.44;5093704;28;20055;-64
2021/05/24 03:13:48;;;;;;;14.45;1.65;;;;;;;9.25;100.00;100246.78;5093764;28;20040;-63
2021/05/24 03:16:14;;;;;;;11.38;1.73;;;;;;;9.15;100.00;100236.53;5093733;28;20061;-63
2021/05/24 03:18:40;;;;;;;16.65;1.98;;;;;;;9.04;100.00;100246.44;5093678;28;20036;-64
2021/05/24 03:21:05;;;;;;;13.18;1.85;;;;;;;9.01;100.00;100229.75;5093304;28;20102;-63
2021/05/24 03:23:31;;;;;;;14.52;1.75;;;;;;;8.94;100.00;100221.75;5092998;28;20401;-64
2021/05/24 03:25:56;;;;;;;6.10;0.52;;;;;;;8.89;100.00;100221.66;5093474;28;20440;-63
2021/05/24 03:28:22;;;;;;;9.20;0.90;;;;;;;8.87;100.00;100212.09;5093364;28;20032;-64
2021/05/24 03:30:48;;;;;;;4.82;0.73;;;;;;;8.87;100.00;100206.66;5093238;28;20036;-63
2021/05/24 03:33:13;;;;;;;10.80;1.00;;;;;;;8.86;100.00;100207.72;5093161;28;20055;-63
2021/05/24 03:35:39;;;;;;;10.20;1.40;;;;;;;8.85;100.00;100206.03;5093271;28;20036;-64
2021/05/24 03:38:05;;;;;;;8.45;1.00;;;;;;;8.80;100.00;100214.13;5091752;28;20102;-63
2021/05/24 03:40:30;;;;;;;8.70;1.42;;;;;;;8.78;100.00;100214.38;5093117;28;20036;-64
2021/05/24 03:42:56;;;;;;;9.63;1.40;;;;;;;8.80;100.00;100206.78;5092992;28;20036;-64
2021/05/24 03:45:23;;;;;;;10.10;1.13;;;;;;;8.83;100.00;100208.19;5093078;28;20036;-62
2021/05/24 03:47:50;;;;;;;11.13;1.35;;;;;;;8.85;100.00;100208.78;5092978;28;20032;-63
2021/05/24 03:50:17;;;;;;;8.02;0.70;;;;;;;8.88;100.00;100208.31;5092792;28;20047;-64
2021/05/24 03:52:43;;;;;;;8.38;0.80;;;;;;;8.89;100.00;100196.34;5091598;28;20043;-63
2021/05/24 03:55:10;;;;;;;10.75;1.20;;;;;;;8.94;100.00;100197.22;5092899;28;20398;-63
2021/05/24 03:57:35;;;;;;;8.90;1.80;;;;;;;8.96;100.00;100194.25;5092740;28;20559;-63
2021/05/24 04:00:04;;;;;;;5.25;1.02;;;;;;;9.00;100.00;100184.50;5092788;28;20106;-64
2021/05/24 04:02:30;;;;;;;12.65;1.33;;;;;;;9.03;100.00;100178.59;5092997;28;20815;-63
2021/05/24 04:04:57;;;;;;;7.10;1.08;;;;;;;9.05;100.00;100181.91;5092542;28;20040;-65
2021/05/24 04:07:24;;;;;;;9.63;0.90;;;;;;;9.05;100.00;100188.16;5092570;28;20474;-65
2021/05/24 04:09:51;;;;;;;7.90;1.75;;;;;;;9.06;100.00;100183.53;5092575;28;20443;-63
2021/05/24 04:12:18;;;;;;;13.20;1.85;;;;;;;9.09;100.00;100195.84;5092600;28;20085;-63
2021/05/24 04:14:44;;;;;;;6.85;0.93;;;;;;;9.12;100.00;100187.16;5092306;28;20267;-64
2021/05/24 04:17:12;;;;;;;10.05;0.95;;;;;;;9.14;100.00;100191.28;5092421;28;20501;-64
2021/05/24 04:19:40;;;;;;;4.80;0.93;;;;;;;9.16;100.00;100194.59;5092447;28;20044;-63
2021/05/24 04:22:06;;;;;;;5.85;1.00;;;;;;;9.17;100.00;100204.41;5092369;28;20516;-63
2021/05/24 04:24:32;;;;;;;10.45;1.20;;;;;;;9.19;100.00;100204.97;5092318;28;20032;-63
2021/05/24 04:26:58;;;;;;;8.95;1.83;;;;;;;9.20;100.00;100201.22;5092389;28;20047;-64
2021/05/24 04:29:24;;;;;;;10.98;1.23;;;;;;;9.22;100.00;100195.50;5092201;28;20028;-63
2021/05/24 04:31:49;;;;;;;7.82;0.93;;;;;;;9.23;100.00;100195.25;5092169;28;20062;-64
2021/05/24 04:34:15;;;;;;;8.85;1.10;;;;;;;9.25;100.00;100198.56;5092310;28;20044;-62
2021/05/24 04:36:41;;;;;;;7.38;0.90;;;;;;;9.28;100.00;100192.59;5091420;28;20443;-62
2021/05/24 04:39:06;;;;;;;10.93;2.13;;;;;;;9.31;100.00;100192.09;5092098;28;20047;-64
2021/05/24 04:41:33;;;;;;;12.48;1.77;;;;;;;9.33;100.00;100195.38;5092037;28;20066;-63
2021/05/24 04:44:10;;;;;;;13.50;1.98;;;;;;;9.34;100.00;100188.88;5091779;28;20075;-62
2021/05/24 04:46:37;;;;;;;13.77;1.35;;;;;;;9.38;100.00;100191.13;5092012;28;20130;-63
2021/05/24 04:49:03;;;;;;;13.30;2.03;;;;;;;9.38;100.00;100182.94;5091789;28;20440;-63
2021/05/24 04:51:29;;;;;;;12.88;1.67;;;;;;;9.42;100.00;100186.81;5091958;28;20040;-64
2021/05/24 04:53:54;;;;;;;14.43;2.00;;;;;;;9.45;100.00;100191.75;5091749;28;20044;-63
2021/05/24 04:56:20;;;;;;;17.65;2.10;;;;;;;9.51;100.00;100188.00;5091766;28;20480;-64
2021/05/24 04:58:46;;;;;;;9.57;1.42;;;;;;;9.57;100.00;100184.31;5091789;28;20044;-64
2021/05/24 05:01:11;;;;;;;15.55;2.15;;;;;;;9.61;100.00;100190.88;5091691;28;20040;-63
2021/05/24 05:03:37;;;;;;;13.30;1.55;;;;;;;9.62;100.00;100204.28;5091599;28;20051;-64
2021/05/24 05:06:02;;;;;;;13.88;1.63;;;;;;;9.38;100.00;100202.84;5091651;28;20039;-63
2021/05/24 05:08:28;;;;;;;8.73;1.23;;;;;;;9.08;100.00;100203.19;5091469;28;20422;-64
2021/05/24 05:10:54;;;;;;;14.50;1.92;;;;;;;9.01;100.00;100200.59;5091362;28;20044;-63
2021/05/24 05:13:19;;;;;;;9.25;1.60;;;;;;;8.90;100.00;100192.53;5091387;28;20051;-63
2021/05/24 05:15:45;;;;;;;7.18;1.40;;;;;;;8.81;100.00;100197.56;5091396;28;20047;-63
2021/05/24 05:18:10;;;;;;;15.90;1.60;;;;;;;8.75;100.00;100193.09;5091673;28;20051;-63
2021/05/24 05:20:36;;;;;;;14.18;2.20;;;;;;;8.72;100.00;100188.97;5091142;28;20044;-64
2021/05/24 05:23:02;;;;;;;14.70;2.35;;;;;;;8.70;100.00;100191.13;5091270;28;20043;-63
2021/05/24 05:25:28;;;;;;;14.02;2.58;;;;;;;8.68;100.00;100196.00;5091092;28;20089;-63
2021/05/24 05:27:54;;;;;;;16.67;2.15;;;;;;;8.68;100.00;100196.00;5091296;28;20067;-63
2021/05/24 05:30:19;;;;;;;14.20;2.83;;;;;;;8.72;100.00;100199.88;5090974;28;20048;-63
2021/05/24 05:32:45;;;;;;;16.02;1.98;;;;;;;8.76;100.00;100195.56;5091057;28;20044;-64
2021/05/24 05:35:13;;;;;;;11.98;1.70;;;;;;;8.82;100.00;100198.38;5091059;28;20105;-63
2021/05/24 05:37:39;;;;;;;13.68;2.05;;;;;;;8.86;100.00;100196.84;5091222;28;20043;-63
2021/05/24 05:40:05;;;;;;;10.30;1.60;;;;;;;8.92;100.00;100193.13;5091003;28;20051;-63
2021/05/24 05:42:31;;;;;;;11.70;2.50;;;;;;;8.95;100.00;100192.63;5090952;28;20028;-63
2021/05/24 05:44:57;;;;;;;11.48;1.70;;;;;;;8.97;100.00;100209.53;5090928;28;20036;-61
2021/05/24 05:47:23;;;;;;;12.35;1.77;;;;;;;8.97;100.00;100217.69;5090759;28;20489;-64
2021/05/24 05:49:49;;;;;;;10.05;2.25;;;;;;;8.97;100.00;100210.34;5090887;28;20218;-62
2021/05/24 05:52:19;;;;;;;14.32;2.13;;;;;;;9.00;100.00;100214.47;5091098;28;20048;-63
2021/05/24 05:54:45;;;;;;;15.40;2.65;;;;;;;9.01;100.00;100213.41;5090760;28;20127;-63
2021/05/24 05:57:12;;;;;;;17.20;2.60;;;;;;;9.05;100.00;100198.25;5089611;28;20127;-63
2021/05/24 05:59:37;;;;;;;19.38;2.63;;;;;;;9.07;100.00;100191.47;5090833;28;20032;-63
2021/05/24 06:02:03;;;;;;;14.10;2.22;;;;;;;9.10;100.00;100195.59;5090861;28;20032;-62
2021/05/24 06:04:29;;;;;;;14.98;2.00;;;;;;;9.08;100.00;100181.41;5090715;28;20436;-64
2021/05/24 06:06:55;;;;;;;12.25;2.08;;;;;;;9.07;100.00;100179.75;5090868;28;20040;-64
2021/05/24 06:09:20;;;;;;;13.93;2.30;;;;;;;8.98;100.00;100187.50;5090752;28;20036;-63
2021/05/24 06:11:47;;;;;;;16.58;2.55;;;;;;;8.93;100.00;100200.22;5090666;28;20036;-63
2021/05/24 06:14:13;;;;;;;11.73;2.58;;;;;;;8.88;100.00;100209.13;5091075;28;20043;-63
2021/05/24 06:16:39;;;;;;;12.73;2.22;;;;;;;8.85;100.00;100203.31;5090708;28;20043;-64
2021/05/24 06:19:04;;;;;;;10.10;1.23;;;;;;;8.82;100.00;100212.00;5090487;28;20036;-63
2021/05/24 06:21:30;;;;;;;6.65;2.03;;;;;;;8.82;100.00;100214.72;5090689;28;20386;-63
2021/05/24 06:23:56;;;;;;;13.75;3.00;;;;;;;8.89;100.00;100215.41;5090469;28;20036;-63
2021/05/24 06:26:22;;;;;;;7.75;1.58;;;;;;;8.93;100.00;100222.81;5090675;28;20032;-63
2021/05/24 06:28:47;;;;;;;11.32;1.60;;;;;;;8.97;100.00;100217.69;5090535;28;20432;-63
2021/05/24 06:31:13;;;;;;;5.47;1.70;;;;;;;9.02;100.00;100224.06;5090548;28;20032;-63
2021/05/24 06:33:38;;;;;;;7.22;1.58;;;;;;;9.09;100.00;100226.63;5090521;28;20032;-63
2021/05/24 06:36:04;;;;;;;9.13;2.08;;;;;;;9.16;100.00;100221.81;5090481;28;20057;-63
2021/05/24 06:38:30;;;;;;;5.10;1.00;;;;;;;9.27;100.00;100229.09;5090482;28;20123;-63
2021/05/24 06:40:56;;;;;;;5.85;1.40;;;;;;;9.33;100.00;100233.53;5090449;28;20056;-63
2021/05/24 06:43:24;;;;;;;8.73;1.52;;;;;;;9.40;100.00;100233.41;5090393;28;20039;-63
2021/05/24 06:45:51;;;;;;;6.75;1.30;;;;;;;9.46;100.00;100237.00;5090280;28;20054;-63
2021/05/24 06:48:17;;;;;;;9.02;2.00;;;;;;;9.48;100.00;100237.59;5090450;28;20111;-63
2021/05/24 06:50:42;;;;;;;7.47;1.00;;;;;;;9.53;100.00;100232.19;5090365;28;20434;-63
2021/05/24 06:53:08;;;;;;;6.63;1.27;;;;;;;9.57;100.00;100236.09;5090234;28;20051;-63
2021/05/24 06:55:33;;;;;;;7.53;2.10;;;;;;;9.60;100.00;100238.31;5090399;28;20036;-63
2021/05/24 06:57:59;;;;;;;4.97;0.95;;;;;;;9.61;100.00;100245.41;5090248;28;20402;-63
2021/05/24 07:00:25;;;;;;;6.05;1.23;;;;;;;9.61;100.00;100238.06;5093862;28;20418;-63
2021/05/24 07:02:50;;;;;;;7.70;1.02;;;;;;;9.60;100.00;100243.78;5093950;28;20432;-63
2021/05/24 07:05:17;;;;;;;9.48;1.77;;;;;;;9.60;100.00;100251.94;5093787;28;20028;-63
2021/05/24 07:07:42;;;;;;;6.47;1.40;;;;;;;9.63;100.00;100248.72;5093928;28;20055;-63
2021/05/24 07:10:09;;;;;;;6.28;0.95;;;;;;;9.58;100.00;100248.66;5093588;28;20371;-62
2021/05/24 07:12:35;;;;;;;7.47;1.25;;;;;;;9.59;100.00;100253.03;5093695;28;20443;-63
2021/05/24 07:15:03;;;;;;;7.43;1.23;;;;;;;9.66;100.00;100253.66;5093467;28;20085;-63
2021/05/24 07:17:30;;;;;;;11.20;1.40;;;;;;;9.72;100.00;100263.59;5093691;28;20028;-62
2021/05/24 07:19:55;;;;;;;6.13;1.17;;;;;;;9.85;100.00;100260.47;5093367;28;20090;-64
2021/05/24 07:22:21;;;;;;;6.70;1.10;;;;;;;9.93;100.00;100257.34;5093541;28;20032;-63
2021/05/24 07:24:47;;;;;;;3.10;0.82;;;;;;;9.93;100.00;100254.59;5093329;28;20032;-62
2021/05/24 07:27:12;;;;;;;6.82;1.48;;;;;;;10.03;100.00;100258.53;5093468;28;20069;-63
2021/05/24 07:29:38;;;;;;;6.00;0.73;;;;;;;10.09;100.00;100255.63;5093236;28;20453;-63
2021/05/24 07:32:09;;;;;;;3.08;1.30;;;;;;;10.09;100.00;100257.53;5093329;28;20040;-63
2021/05/24 07:34:36;;;;;;;5.97;0.95;;;;;;;10.20;100.00;100259.31;5093151;28;20490;-63
2021/05/24 07:37:01;;;;;;;7.38;1.38;;;;;;;10.27;100.00;100259.97;5093267;28;20050;-63
2021/05/24 07:39:27;;;;;;;3.00;0.68;;;;;;;10.38;100.00;100261.72;5093184;28;20039;-62
2021/05/24 07:41:53;;;;;;;3.88;0.80;;;;;;;10.37;100.00;100265.53;5087512;28;20037;-64
2021/05/24 07:44:18;;;;;;;6.78;0.93;;;;;;;10.45;100.00;100265.13;5060513;28;20032;-62
2021/05/24 07:46:44;;;;;;;6.63;1.08;;;;;;;10.57;100.00;100270.41;5057599;28;20135;-64
2021/05/24 07:49:10;;;;;;;4.47;1.15;;;;;;;10.68;100.00;100274.09;5071356;28;20557;-63
2021/05/24 07:51:37;;;;;;;7.75;0.98;;;;;;;10.86;100.00;100281.94;5072625;28;20044;-63
2021/05/24 07:54:02;;;;;;;7.90;0.80;;;;;;;10.99;100.00;100278.78;5072460;28;20479;-63
2021/05/24 07:56:28;;;;;;;3.78;0.88;;;;;;;11.22;100.00;100282.25;5061119;28;20043;-61
2021/05/24 07:58:54;;;;;;;2.53;0.90;;;;;;;11.38;100.00;100282.13;5058314;28;20048;-64
2021/05/24 08:01:19;;;;;;;8.52;1.98;;;;;;;11.60;100.00;100279.28;5067002;28;20483;-63
2021/05/24 08:03:45;;;;;;;4.55;0.82;;;;;;;11.56;100.00;100277.34;5062926;28;20044;-64
2021/05/24 08:06:10;;;;;;;9.93;1.17;;;;;;;11.57;100.00;100285.28;5055094;28;20048;-62
2021/05/24 08:08:37;;;;;;;9.00;1.40;;;;;;;11.43;100.00;100284.06;5055716;28;20040;-63
2021/05/24 08:11:02;;;;;;;6.95;1.40;;;;;;;11.26;100.00;100294.31;5055743;28;20036;-63
2021/05/24 08:13:29;;;;;;;8.30;0.95;;;;;;;10.98;100.00;100315.41;5061320;28;20085;-65
2021/05/24 08:15:55;;;;;;;15.00;1.08;;;;;;;10.86;100.00;100317.44;5062435;28;20037;-65
2021/05/24 08:18:21;;;;;;;5.13;1.27;;;;;;;10.69;100.00;100311.25;5064174;28;20025;-66
2021/05/24 08:20:49;;;;;;;5.07;0.70;;;;;;;10.54;100.00;100315.44;5070243;28;20148;-64
2021/05/24 08:23:15;;;;;;;4.25;0.75;;;;;;;10.47;100.00;100314.00;5070171;28;20044;-62
2021/05/24 08:25:41;;;;;;;3.80;0.40;;;;;;;10.44;100.00;100307.16;5069330;28;20044;-63
2021/05/24 08:28:06;;;;;;;1.52;0.45;;;;;;;10.33;100.00;100313.53;5076417;28;20045;-63
2021/05/24 08:30:32;;;;;;;3.75;0.75;;;;;;;10.30;100.00;100324.16;5070066;28;20063;-64
2021/05/24 08:32:58;;;;;;;4.72;0.80;;;;;;;10.27;100.00;100325.50;5072922;28;20449;-62
2021/05/24 08:35:24;;;;;;;5.15;0.95;;;;;;;10.32;100.00;100325.53;5081434;28;20040;-63
2021/05/24 08:37:49;;;;;;;2.85;0.47;;;;;;;10.30;100.00;100330.44;5069360;28;20036;-64
2021/05/24 08:40:18;;;;;;;4.20;0.80;;;;;;;10.40;100.00;100327.81;5063008;28;20037;-65
2021/05/24 08:42:44;;;;;;;2.45;0.50;;;;;;;10.45;100.00;100330.63;5060513;28;20165;-64
2021/05/24 08:45:12;;;;;;;3.65;0.73;;;;;;;10.61;100.00;100333.56;5063771;28;20045;-63
2021/05/24 08:47:38;;;;;;;5.25;0.95;;;;;;;10.82;100.00;100340.91;5087861;28;20037;-62
2021/05/24 08:50:06;;;;;;;2.70;0.45;;;;;;;11.05;100.00;100343.31;5052144;28;20044;-62
2021/05/24 08:52:32;;;;;;;4.07;0.68;;;;;;;11.03;100.00;100345.50;5064431;28;20467;-64
2021/05/24 08:54:58;;;;;;;4.13;0.50;;;;;;;11.10;100.00;100351.56;5055149;28;20067;-65
2021/05/24 08:57:24;;;;;;;1.40;0.20;;;;;;;11.08;100.00;100353.75;5070708;28;20116;-63
2021/05/24 08:59:50;;;;;;;2.85;0.43;;;;;;;11.13;100.00;100356.53;5070567;28;20064;-63
2021/05/24 09:02:15;;;;;;;5.25;0.60;;;;;;;11.23;100.00;100360.44;5070109;28;20074;-63
2021/05/24 09:04:49;;;;;;;2.67;0.50;;;;;;;11.45;100.00;100358.47;5070355;28;20044;-63
2021/05/24 09:07:16;;;;;;;0.95;0.35;;;;;;;11.59;100.00;100367.91;5070367;28;20032;-63
2021/05/24 09:10:05;;;;;;;1.27;0.60;;;;;;;11.48;100.00;100369.75;5070006;28;20048;-63
2021/05/24 09:12:32;;;;;;;6.90;1.00;;;;;;;11.45;100.00;100380.34;5064359;28;20034;-64
2021/05/24 09:15:00;;;;;;;8.27;0.90;;;;;;;11.31;100.00;100376.41;5067334;28;20492;-65
2021/05/24 09:17:50;;;;;;;10.80;1.63;;;;;;;11.15;100.00;100365.31;5052779;28;20025;-65
2021/05/24 09:20:18;;;;;;;5.63;0.80;;;;;;;11.16;100.00;100377.91;5051959;28;20140;-66
2021/05/24 09:22:44;;;;;;;4.80;1.25;;;;;;;11.10;100.00;100378.91;5062811;28;20032;-67
2021/05/24 09:25:10;;;;;;;5.85;0.80;;;;;;;11.15;100.00;100391.81;5069722;28;20036;-66
2021/05/24 09:27:38;;;;;;;6.22;0.93;;;;;;;11.13;100.00;100389.34;5069504;28;20036;-64
2021/05/24 09:30:06;;;;;;;4.25;1.58;;;;;;;11.16;100.00;100388.81;5070609;28;20029;-63
2021/05/24 09:32:33;;;;;;;5.82;1.20;;;;;;;11.21;100.00;100403.63;5061743;28;20035;-66
2021/05/24 09:35:03;;;;;;;4.70;1.40;;;;;;;11.24;100.00;100389.44;5069814;28;20537;-62
2021/05/24 09:37:32;;;;;;;8.07;1.40;;;;;;;11.22;100.00;100399.81;5068428;28;20425;-62
2021/05/24 09:39:58;;;;;;;7.90;0.80;;;;;;;11.35;100.00;100413.06;5068684;28;20082;-64
2021/05/24 09:42:25;;;;;;;8.35;0.98;;;;;;;11.47;100.00;100400.06;5070136;28;20052;-64
2021/05/24 09:44:54;;;;;;;5.65;0.90;;;;;;;11.65;100.00;100410.63;5068886;28;20044;-64
2021/05/24 09:47:32;;;;;;;5.95;1.40;;;;;;;11.96;100.00;100409.00;5060586;28;20472;-64
2021/05/24 09:50:09;;;;;;;4.95;1.00;;;;;;;11.97;100.00;100415.28;5050919;28;20053;-65
2021/05/24 09:52:36;;;;;;;11.80;1.48;;;;;;;11.83;100.00;100430.53;5058617;28;20032;-64
2021/05/24 09:55:26;;;;;;;9.57;1.52;;;;;;;11.56;100.00;100435.97;5050470;28;20090;-65
2021/05/24 09:58:05;;;;;;;3.10;0.60;;;;;;;11.37;100.00;100438.25;5050675;28;20454;-63
2021/05/24 10:00:53;;;;;;;2.88;0.50;;;;;;;11.17;100.00;100434.22;5050561;28;20040;-64
2021/05/24 10:03:24;;;;;;;6.65;1.38;;;;;;;11.06;100.00;100442.53;5074945;28;20032;-65
2021/05/24 10:05:51;;;;;;;5.20;0.98;;;;;;;10.93;100.00;100441.00;5075224;28;20115;-66
2021/05/24 10:08:17;;;;;;;4.40;0.70;;;;;;;10.99;100.00;100442.75;5065705;28;20058;-63
2021/05/24 10:10:44;;;;;;;5.22;0.70;;;;;;;11.16;100.00;100443.50;5051345;28;20044;-62
2021/05/24 10:13:10;;;;;;;2.25;0.60;;;;;;;11.28;100.00;100450.72;5070034;28;20419;-63
2021/05/24 10:15:38;;;;;;;3.28;0.68;;;;;;;11.58;100.00;100445.56;5056576;28;20127;-63
2021/05/24 10:18:05;;;;;;;4.35;0.75;;;;;;;11.77;100.00;100444.09;5050476;28;20132;-62
2021/05/24 10:20:33;;;;;;;3.22;0.65;;;;;;;12.11;100.00;100443.06;5056362;28;20040;-64
2021/05/24 10:22:59;;;;;;;2.40;0.80;;;;;;;12.39;100.00;100437.25;5051333;28;20064;-62
2021/05/24 10:25:26;;;;;;;3.67;0.90;;;;;;;12.38;100.00;100441.06;5061036;28;20127;-66
2021/05/24 10:27:52;;;;;;;4.30;0.70;;;;;;;12.58;100.00;100448.59;5069870;28;20045;-64
2021/05/24 10:30:20;;;;;;;2.97;0.70;;;;;;;12.64;100.00;100422.84;5069234;28;20041;-63
2021/05/24 10:33:10;;;;;;;3.33;0.70;;;;;;;12.54;100.00;100420.06;5068781;28;20033;-64
2021/05/24 10:35:44;;;;;;;3.08;1.20;;;;;;;12.37;100.00;100436.69;5067017;28;20040;-62
2021/05/24 10:38:29;;;;;;;3.50;0.90;;;;;;;12.73;100.00;100429.50;5072790;28;20466;-66
2021/05/24 10:41:02;;;;;;;8.65;1.83;;;;;;;12.87;100.00;100441.63;5072768;28;20114;-64
2021/05/24 10:43:48;;;;;;;5.60;0.90;;;;;;;12.92;100.00;100438.06;5064410;28;20085;-65
2021/05/24 10:46:25;;;;;;;5.30;0.95;;;;;;;12.56;100.00;100435.16;5073381;28;20127;-63
2021/05/24 10:49:05;;;;;;;5.88;1.20;;;;;;;12.32;100.00;100445.69;5073222;28;20470;-62
2021/05/24 10:51:46;;;;;;;8.07;1.38;;;;;;;12.11;100.00;100454.81;5073614;28;20482;-62
2021/05/24 10:54:21;;;;;;;8.07;1.50;;;;;;;12.05;100.00;100455.88;5059723;28;20055;-62
2021/05/24 10:56:58;;;;;;;;;;;;;;;11.97;100.00;100459.91;5073912;28;20825;-62
2021/05/24 10:59:39;;;;;;;4.68;1.15;;;;;;;12.26;100.00;100468.63;5063108;28;19912;-63
2021/05/24 11:02:11;;;;;;;4.60;1.20;;;;;;;12.50;100.00;100469.09;5070844;28;20029;-66
2021/05/24 11:04:51;;;;;;;5.22;1.13;;;;;;;12.77;100.00;100471.72;5065397;28;20037;-64
2021/05/24 11:07:45;;;;;;;7.60;1.77;;;;;;;12.99;100.00;100447.69;5053236;28;20098;-62
2021/05/24 11:10:17;;;;;;;6.45;1.50;;;;;;;12.80;100.00;100457.47;5063104;28;20046;-66
2021/05/24 11:12:56;;;;;;;12.50;2.65;;;;;;;12.47;100.00;100496.16;5072653;28;20108;-64
2021/05/24 11:15:35;;;;;;;7.60;1.58;;;;;;;12.07;100.00;100500.25;5061984;28;20033;-65
2021/05/24 11:18:02;;;;;;;7.53;1.30;;;;;;;11.75;100.00;100503.72;5053034;28;20094;-63